createdAt,value
2023-03-25T00:01:20.245Z,96654.25
2023-03-25T00:03:51.175Z,96659.09
2023-03-25T00:06:19.931Z,96651.44
2023-03-25T00:08:47.424Z,96642.50
2023-03-25T00:11:14.431Z,96635.13
2023-03-25T00:13:42.486Z,96624.56
2023-03-25T00:16:10.929Z,96632.75
2023-03-25T00:18:40.392Z,96625.19
2023-03-25T00:21:11.989Z,96640.09
2023-03-25T00:23:40.876Z,96632.94
2023-03-25T00:26:08.573Z,96631.44
2023-03-25T00:28:38.006Z,96645.25
2023-03-25T00:31:12.788Z,96646.75
2023-03-25T00:33:44.384Z,96646.56
2023-03-25T00:36:13.971Z,96631.75
2023-03-25T00:38:43.866Z,96637.06
2023-03-25T00:41:23.503Z,96638.56
2023-03-25T00:43:52.851Z,96634.75
2023-03-25T00:46:21.093Z,96624.53
2023-03-25T00:48:48.173Z,96624.31
2023-03-25T00:51:21.791Z,96640.94
2023-03-25T00:53:53.460Z,96637.06
2023-03-25T00:56:24.696Z,96621.28
2023-03-25T00:58:51.959Z,96617.94
2023-03-25T01:01:23.681Z,96624.75
2023-03-25T01:04:00.890Z,96630.34
2023-03-25T01:06:35.267Z,96630.34
2023-03-25T01:09:07.089Z,96626.25
2023-03-25T01:11:35.160Z,96624.97
2023-03-25T01:14:03.873Z,96625.63
2023-03-25T01:16:33.002Z,96620.75
2023-03-25T01:19:00.198Z,96624.88
2023-03-25T01:21:27.556Z,96631.97
2023-03-25T01:23:54.660Z,96635.03
2023-03-25T01:26:21.756Z,96627.44
2023-03-25T01:28:48.701Z,96624.56
2023-03-25T01:31:16.699Z,96627.56
2023-03-25T01:33:43.726Z,96623.25
2023-03-25T01:36:13.286Z,96617.22
2023-03-25T01:38:41.614Z,96618.28
2023-03-25T01:41:10.394Z,96607.91
2023-03-25T01:43:37.566Z,96612.03
2023-03-25T01:46:05.644Z,96610.06
2023-03-25T01:48:37.360Z,96601.22
2023-03-25T01:51:14.810Z,96589.56
2023-03-25T01:53:42.873Z,96590.41
2023-03-25T01:56:13.847Z,96574.66
2023-03-25T01:58:41.690Z,96574.19
2023-03-25T02:01:14.239Z,96575.28
2023-03-25T02:03:51.079Z,96579.34
2023-03-25T02:06:26.887Z,96576.13
2023-03-25T02:08:56.963Z,96569.09
2023-03-25T02:11:29.661Z,96571.91
2023-03-25T02:14:06.785Z,96582.69
2023-03-25T02:16:46.096Z,96571.56
2023-03-25T02:19:33.640Z,96568.22
2023-03-25T02:22:38.104Z,96563.34
2023-03-25T02:25:14.476Z,96551.41
2023-03-25T02:28:03.943Z,96550.22
2023-03-25T02:30:45.592Z,96545.78
2023-03-25T02:33:40.205Z,96545.78
2023-03-25T02:36:35.248Z,96554.91
2023-03-25T02:39:02.326Z,96563.44
2023-03-25T02:41:36.098Z,96556.31
2023-03-25T02:44:30.383Z,96577.28
2023-03-25T02:47:01.850Z,96665.34
2023-03-25T02:49:33.693Z,96662.56
2023-03-25T02:52:22.271Z,96652.75
2023-03-25T02:54:52.771Z,96636.25
2023-03-25T02:57:23.417Z,96618.31
2023-03-25T02:59:54.351Z,96629.59
2023-03-25T03:02:25.912Z,96626.31
2023-03-25T03:04:56.330Z,96633.66
2023-03-25T03:07:35.192Z,96632.91
2023-03-25T03:10:19.553Z,96627.47
2023-03-25T03:13:02.218Z,96641.91
2023-03-25T03:15:44.478Z,96642.94
2023-03-25T03:18:27.541Z,96646.41
2023-03-25T03:21:31.890Z,96649.44
2023-03-25T03:24:06.288Z,96645.94
2023-03-25T03:26:57.901Z,96645.72
2023-03-25T03:29:31.704Z,96648.75
2023-03-25T03:32:05.766Z,96657.84
2023-03-25T03:35:02.718Z,96643.53
2023-03-25T03:37:34.942Z,96647.34
2023-03-25T03:40:06.081Z,96641.75
2023-03-25T03:42:43.006Z,96645.00
2023-03-25T03:45:17.791Z,96638.56
2023-03-25T03:47:48.823Z,96643.94
2023-03-25T03:50:21.011Z,96644.75
2023-03-25T03:53:01.633Z,96649.91
2023-03-25T03:55:38.083Z,96640.75
2023-03-25T03:58:24.353Z,96647.47
2023-03-25T04:00:57.940Z,96637.84
2023-03-25T04:03:35.194Z,96634.59
2023-03-25T04:06:11.181Z,96636.16
2023-03-25T04:08:46.570Z,96632.38
2023-03-25T04:11:21.446Z,96632.59
2023-03-25T04:13:52.088Z,96634.88
2023-03-25T04:16:19.220Z,96627.00
2023-03-25T04:18:48.282Z,96620.66
2023-03-25T04:21:15.579Z,96625.03
2023-03-25T04:23:42.680Z,96622.47
2023-03-25T04:26:09.664Z,96615.03
2023-03-25T04:28:37.025Z,96617.03
2023-03-25T04:31:07.740Z,96615.97
2023-03-25T04:33:36.236Z,96608.13
2023-03-25T04:36:03.985Z,96601.28
2023-03-25T04:38:30.994Z,96609.91
2023-03-25T04:40:58.591Z,96598.19
2023-03-25T04:43:25.770Z,96593.88
2023-03-25T04:45:55.254Z,96593.13
2023-03-25T04:48:30.332Z,96592.09
2023-03-25T04:50:59.305Z,96598.97
2023-03-25T04:53:27.513Z,96604.31
2023-03-25T04:55:55.282Z,96602.06
2023-03-25T04:58:23.096Z,96604.63
2023-03-25T05:00:54.419Z,96602.38
2023-03-25T05:03:24.976Z,96596.75
2023-03-25T05:05:53.099Z,96603.84
2023-03-25T05:08:26.433Z,96599.31
2023-03-25T05:10:53.560Z,96610.97
2023-03-25T05:13:21.387Z,96613.06
2023-03-25T05:15:48.397Z,96605.44
2023-03-25T05:18:19.477Z,96607.72
2023-03-25T05:20:47.384Z,96612.84
2023-03-25T05:23:18.571Z,96616.25
2023-03-25T05:25:51.342Z,96619.84
2023-03-25T05:28:19.105Z,96632.06
2023-03-25T05:30:47.673Z,96630.59
2023-03-25T05:33:20.622Z,96633.13
2023-03-25T05:35:47.759Z,96633.13
2023-03-25T05:38:19.253Z,96637.97
2023-03-25T05:40:47.105Z,96638.50
2023-03-25T05:43:17.960Z,96632.91
2023-03-25T05:45:45.712Z,96636.44
2023-03-25T05:48:12.891Z,96641.06
2023-03-25T05:50:43.261Z,96640.00
2023-03-25T05:53:12.876Z,96641.06
2023-03-25T05:55:39.979Z,96639.59
2023-03-25T05:58:07.494Z,96651.03
2023-03-25T06:00:37.266Z,96664.25
2023-03-25T06:03:07.496Z,96657.41
2023-03-25T06:05:36.784Z,96655.38
2023-03-25T06:08:04.498Z,96657.41
2023-03-25T06:10:32.238Z,96668.31
2023-03-25T06:12:59.168Z,96662.97
2023-03-25T06:15:39.420Z,96675.69
2023-03-25T06:18:06.972Z,96684.59
2023-03-25T06:20:34.092Z,96676.94
2023-03-25T06:23:02.221Z,96680.47
2023-03-25T06:25:31.363Z,96690.34
2023-03-25T06:28:02.197Z,96682.25
2023-03-25T06:30:29.328Z,96682.78
2023-03-25T06:32:56.623Z,96680.47
2023-03-25T06:35:26.169Z,96678.94
2023-03-25T06:37:53.971Z,96683.78
2023-03-25T06:40:40.383Z,96672.59
2023-03-25T06:43:07.746Z,96666.47
2023-03-25T06:45:37.735Z,96679.72
2023-03-25T06:48:16.923Z,96680.47
2023-03-25T06:50:46.173Z,96677.13
2023-03-25T06:53:13.495Z,96687.81
2023-03-25T06:55:41.763Z,96676.56
2023-03-25T06:58:08.746Z,96679.28
2023-03-25T07:00:35.920Z,96690.19
2023-03-25T07:03:03.610Z,96692.47
2023-03-25T07:05:31.085Z,96687.34
2023-03-25T07:07:58.968Z,96703.84
2023-03-25T07:10:28.087Z,96698.19
2023-03-25T07:12:55.399Z,96700.47
2023-03-25T07:15:22.338Z,96694.34
2023-03-25T07:17:49.968Z,96682.41
2023-03-25T07:20:17.350Z,96688.00
2023-03-25T07:22:46.213Z,96695.88
2023-03-25T07:25:13.161Z,96693.31
2023-03-25T07:27:41.003Z,96705.50
2023-03-25T07:30:15.985Z,96699.66
2023-03-25T07:32:45.374Z,96705.72
2023-03-25T07:35:12.612Z,96715.59
2023-03-25T07:37:39.557Z,96701.81
2023-03-25T07:40:07.367Z,96702.03
2023-03-25T07:42:39.286Z,96718.50
2023-03-25T07:45:24.787Z,96704.72
2023-03-25T07:47:53.926Z,96698.53
2023-03-25T07:50:25.257Z,96702.56
2023-03-25T07:52:53.801Z,96708.31
2023-03-25T07:55:21.268Z,96712.63
2023-03-25T07:57:48.456Z,96721.28
2023-03-25T08:00:15.725Z,96722.72
2023-03-25T08:02:44.274Z,96717.66
2023-03-25T08:05:12.684Z,96731.94
2023-03-25T08:07:40.075Z,96736.31
2023-03-25T08:10:08.130Z,96733.06
2023-03-25T08:12:35.155Z,96729.13
2023-03-25T08:15:02.223Z,96735.94
2023-03-25T08:17:31.133Z,96734.38
2023-03-25T08:20:00.926Z,96725.97
2023-03-25T08:22:28.774Z,96731.31
2023-03-25T08:24:56.280Z,96735.19
2023-03-25T08:27:24.600Z,96744.09
2023-03-25T08:29:58.794Z,96743.13
2023-03-25T08:32:28.564Z,96750.78
2023-03-25T08:34:57.839Z,96751.53
2023-03-25T08:37:27.477Z,96749.19
2023-03-25T08:39:58.706Z,96736.63
2023-03-25T08:42:25.838Z,96742.94
2023-03-25T08:44:54.086Z,96747.94
2023-03-25T08:47:22.003Z,96744.50
2023-03-25T08:49:48.895Z,96746.72
2023-03-25T08:52:16.664Z,96739.69
2023-03-25T08:54:49.783Z,96746.72
2023-03-25T08:57:16.948Z,96748.16
2023-03-25T08:59:44.889Z,96748.84
2023-03-25T09:02:14.998Z,96743.69
2023-03-25T09:04:42.235Z,96751.50
2023-03-25T09:07:12.394Z,96742.25
2023-03-25T09:09:42.960Z,96744.44
2023-03-25T09:12:10.243Z,96744.03
2023-03-25T09:14:43.077Z,96739.88
2023-03-25T09:17:12.807Z,96735.91
2023-03-25T09:19:40.260Z,96735.19
2023-03-25T09:22:09.293Z,96736.16
2023-03-25T09:24:38.736Z,96733.69
2023-03-25T09:27:09.408Z,96740.81
2023-03-25T09:29:36.783Z,96734.88
2023-03-25T09:35:24.043Z,96743.91
2023-03-25T09:37:52.047Z,96744.03
2023-03-25T09:40:25.115Z,96733.84
2023-03-25T09:43:32.231Z,96741.84
2023-03-25T09:46:07.828Z,96742.50
2023-03-25T09:48:40.497Z,96739.84
2023-03-25T09:51:14.705Z,96738.56
2023-03-25T09:54:05.638Z,96742.13
2023-03-25T09:56:42.087Z,96738.13
2023-03-25T09:59:24.441Z,96734.66
2023-03-25T10:02:10.081Z,96748.22
2023-03-25T10:04:40.172Z,96744.00
2023-03-25T10:07:53.640Z,96743.88
2023-03-25T10:10:21.639Z,96752.69
2023-03-25T10:13:14.483Z,96754.81
2023-03-25T10:15:51.221Z,96747.22
2023-03-25T10:18:29.847Z,96746.63
2023-03-25T10:21:13.103Z,96744.50
2023-03-25T10:23:55.303Z,96743.00
2023-03-25T10:26:30.192Z,96740.47
2023-03-25T10:29:09.212Z,96723.13
2023-03-25T10:31:43.885Z,96731.69
2023-03-25T10:34:23.914Z,96739.97
2023-03-25T10:36:58.028Z,96731.03
2023-03-25T10:39:34.362Z,96719.19
2023-03-25T10:42:13.275Z,96712.97
2023-03-25T10:44:44.759Z,96707.28
2023-03-25T10:47:19.763Z,96712.03
2023-03-25T10:49:52.537Z,96723.09
2023-03-25T10:52:21.111Z,96704.75
2023-03-25T10:54:55.761Z,96703.75
2023-03-25T10:57:29.426Z,96704.50
2023-03-25T11:00:19.930Z,96692.81
2023-03-25T11:02:49.196Z,96690.22
2023-03-25T11:05:22.940Z,96681.22
2023-03-25T11:08:11.485Z,96671.41
2023-03-25T11:10:48.822Z,96672.66
2023-03-25T11:13:22.286Z,96669.56
2023-03-25T11:15:52.489Z,96639.56
2023-03-25T11:18:42.187Z,96663.53
2023-03-25T11:21:23.172Z,96643.47
2023-03-25T11:23:52.646Z,96640.78
2023-03-25T11:26:23.820Z,96639.63
2023-03-25T11:28:57.390Z,96660.47
2023-03-25T11:31:26.742Z,96690.63
2023-03-25T11:34:06.014Z,96668.97
2023-03-25T11:36:39.198Z,96659.03
2023-03-25T11:39:19.570Z,96653.31
2023-03-25T11:41:46.857Z,96653.78
2023-03-25T11:44:29.373Z,96650.63
2023-03-25T11:47:00.813Z,96635.69
2023-03-25T11:49:35.491Z,96647.88
2023-03-25T11:52:08.073Z,96615.59
2023-03-25T11:54:37.170Z,96617.53
2023-03-25T11:57:14.363Z,96644.56
2023-03-25T11:59:48.858Z,96631.31
2023-03-25T12:02:26.168Z,96632.63
2023-03-25T12:05:04.520Z,96686.47
2023-03-25T12:07:45.782Z,96788.00
2023-03-25T12:10:41.316Z,96804.09
2023-03-25T12:13:47.675Z,96845.38
2023-03-25T12:16:32.073Z,96836.53
2023-03-25T12:19:37.306Z,96817.38
2023-03-25T12:22:14.019Z,96805.31
2023-03-25T12:25:09.125Z,96784.78
2023-03-25T12:27:43.853Z,96775.16
2023-03-25T12:30:36.270Z,96761.38
2023-03-25T12:33:41.771Z,96753.78
2023-03-25T12:36:39.225Z,96751.97
2023-03-25T12:39:17.448Z,96752.44
2023-03-25T12:42:06.176Z,96737.41
2023-03-25T12:45:04.957Z,96739.41
2023-03-25T12:47:38.974Z,96733.25
2023-03-25T12:50:24.872Z,96737.72
2023-03-25T12:53:21.668Z,96726.13
2023-03-25T12:56:17.162Z,96714.13
2023-03-25T12:58:56.383Z,96698.69
2023-03-25T13:01:49.526Z,96723.34
2023-03-25T13:04:31.828Z,96697.44
2023-03-25T13:07:13.856Z,96703.59
2023-03-25T13:10:00.591Z,96695.22
2023-03-25T13:12:29.544Z,96687.41
2023-03-25T13:15:04.269Z,96667.97
2023-03-25T13:17:38.454Z,96673.25
2023-03-25T13:20:10.428Z,96674.38
2023-03-25T13:22:45.087Z,96678.63
2023-03-25T13:25:29.878Z,96681.22
2023-03-25T13:28:01.779Z,96692.31
2023-03-25T13:30:37.179Z,96685.41
2023-03-25T13:33:10.948Z,96694.63
2023-03-25T13:35:45.227Z,96696.78
2023-03-25T13:38:21.574Z,96698.47
2023-03-25T13:40:51.682Z,96705.13
2023-03-25T13:43:32.321Z,96695.72
2023-03-25T13:46:11.200Z,96702.31
2023-03-25T13:48:41.523Z,96696.13
2023-03-25T13:51:09.172Z,96689.91
2023-03-25T13:53:52.366Z,96685.16
2023-03-25T13:56:28.274Z,96688.63
2023-03-25T13:58:57.880Z,96676.97
2023-03-25T14:01:40.386Z,96676.50
2023-03-25T14:04:22.466Z,96664.03
2023-03-25T14:07:21.096Z,96666.19
2023-03-25T14:10:10.071Z,96667.06
2023-03-25T14:12:45.666Z,96662.28
2023-03-25T14:15:18.671Z,96653.81
2023-03-25T14:17:47.259Z,96646.00
2023-03-25T14:20:25.660Z,96647.94
2023-03-25T14:23:03.084Z,96638.06
2023-03-25T14:25:38.724Z,96646.47
2023-03-25T14:28:08.748Z,96649.03
2023-03-25T14:30:36.286Z,96633.56
2023-03-25T14:33:03.328Z,96630.84
2023-03-25T14:35:39.357Z,96635.69
2023-03-25T14:38:06.772Z,96624.16
2023-03-25T14:40:47.913Z,96625.41
2023-03-25T14:43:27.208Z,96627.72
2023-03-25T14:46:05.181Z,96632.06
2023-03-25T14:48:37.989Z,96629.84
2023-03-25T14:51:22.353Z,96614.75
2023-03-25T14:54:03.002Z,96624.50
2023-03-25T14:56:56.113Z,96619.91
2023-03-25T14:59:30.415Z,96605.50
2023-03-25T15:02:04.630Z,96613.94
2023-03-25T15:04:35.040Z,96621.56
2023-03-25T15:07:03.769Z,96626.19
2023-03-25T15:09:31.537Z,96615.41
2023-03-25T15:12:02.698Z,96625.69
2023-03-25T15:14:42.466Z,96615.94
2023-03-25T15:17:33.361Z,96621.16
2023-03-25T15:20:05.633Z,96619.44
2023-03-25T15:22:32.549Z,96627.53
2023-03-25T15:25:01.350Z,96605.44
2023-03-25T15:27:50.326Z,96614.50
2023-03-25T15:30:57.743Z,96617.81
2023-03-25T15:33:35.583Z,96625.06
2023-03-25T15:36:09.594Z,96612.34
2023-03-25T15:38:37.570Z,96597.25
2023-03-25T15:41:35.778Z,96584.63
2023-03-25T15:44:11.791Z,96598.63
2023-03-25T15:46:53.429Z,96589.47
2023-03-25T15:49:41.724Z,96596.16
2023-03-25T15:52:46.278Z,96591.44
2023-03-25T15:55:38.534Z,96614.16
2023-03-25T15:58:20.404Z,96622.59
2023-03-25T16:00:50.985Z,96594.19
2023-03-25T16:03:20.953Z,96592.81
2023-03-25T16:05:53.970Z,96594.75
2023-03-25T16:08:36.450Z,96581.78
2023-03-25T16:11:15.923Z,96584.81
2023-03-25T16:13:42.827Z,96584.16
2023-03-25T16:16:12.763Z,96623.69
2023-03-25T16:18:42.379Z,96619.38
2023-03-25T16:21:10.303Z,96631.47
2023-03-25T16:23:37.928Z,96616.78
2023-03-25T16:26:06.244Z,96624.53
2023-03-25T16:28:39.899Z,96617.41
2023-03-25T16:31:10.442Z,96620.03
2023-03-25T16:33:39.303Z,96621.09
2023-03-25T16:36:14.583Z,96613.97
2023-03-25T16:38:41.558Z,96624.03
2023-03-25T16:41:13.140Z,96617.66
2023-03-25T16:43:40.899Z,96620.66
2023-03-25T16:46:10.216Z,96620.13
2023-03-25T16:48:42.617Z,96620.75
2023-03-25T16:51:29.698Z,96614.81
2023-03-25T16:54:00.510Z,96612.22
2023-03-25T16:56:33.249Z,96618.25
2023-03-25T16:59:07.136Z,96623.88
2023-03-25T17:01:39.745Z,96628.00
2023-03-25T17:04:11.931Z,96636.63
2023-03-25T17:06:41.260Z,96638.78
2023-03-25T17:09:17.402Z,96641.94
2023-03-25T17:11:45.868Z,96633.09
2023-03-25T17:14:19.042Z,96633.63
2023-03-25T17:16:49.838Z,96640.31
2023-03-25T17:19:18.113Z,96631.47
2023-03-25T17:22:06.725Z,96638.19
2023-03-25T17:24:51.932Z,96633.66
2023-03-25T17:27:24.379Z,96636.75
2023-03-25T17:29:58.197Z,96633.19
2023-03-25T17:32:25.144Z,96638.81
2023-03-25T17:35:21.150Z,96648.13
2023-03-25T17:37:50.551Z,96640.56
2023-03-25T17:40:22.623Z,96643.13
2023-03-25T17:42:49.993Z,96653.16
2023-03-25T17:45:17.956Z,96644.88
2023-03-25T17:47:46.169Z,96636.44
2023-03-25T17:50:20.277Z,96636.66
2023-03-25T17:52:47.621Z,96644.53
2023-03-25T17:55:18.315Z,96630.28
2023-03-25T17:57:45.568Z,96634.59
2023-03-25T18:00:18.637Z,96637.94
2023-03-25T18:02:47.245Z,96639.47
2023-03-25T18:05:14.965Z,96640.75
2023-03-25T18:07:42.166Z,96641.50
2023-03-25T18:10:16.366Z,96644.31
2023-03-25T18:12:43.940Z,96629.31
2023-03-25T18:15:11.333Z,96631.88
2023-03-25T18:17:38.535Z,96640.31
2023-03-25T18:20:28.233Z,96641.81
2023-03-25T18:22:55.902Z,96641.06
2023-03-25T18:25:23.231Z,96653.38
2023-03-25T18:27:55.674Z,96651.09
2023-03-25T18:30:38.634Z,96662.84
2023-03-25T18:33:09.098Z,96660.06
2023-03-25T18:35:36.638Z,96658.25
2023-03-25T18:38:04.644Z,96657.59
2023-03-25T18:40:36.356Z,96653.94
2023-03-25T18:43:12.081Z,96655.88
2023-03-25T18:45:49.492Z,96665.50
2023-03-25T18:48:21.346Z,96662.34
2023-03-25T18:50:53.904Z,96662.78
2023-03-25T18:53:23.267Z,96650.03
2023-03-25T18:55:56.725Z,96654.38
2023-03-25T18:58:28.240Z,96648.97
2023-03-25T19:00:55.915Z,96656.13
2023-03-25T19:03:30.757Z,96652.56
2023-03-25T19:06:05.283Z,96650.69
2023-03-25T19:08:33.134Z,96659.88
2023-03-25T19:11:16.546Z,96664.75
2023-03-25T19:13:49.396Z,96679.97
2023-03-25T19:16:27.487Z,96663.34
2023-03-25T19:18:57.955Z,96670.91
2023-03-25T19:21:25.053Z,96671.22
2023-03-25T19:23:53.930Z,96672.31
2023-03-25T19:26:21.198Z,96664.97
2023-03-25T19:28:48.271Z,96668.84
2023-03-25T19:31:16.764Z,96672.50
2023-03-25T19:33:43.799Z,96680.72
2023-03-25T19:36:19.442Z,96676.72
2023-03-25T19:38:47.284Z,96667.34
2023-03-25T19:41:16.975Z,96672.97
2023-03-25T19:43:51.109Z,96681.16
2023-03-25T19:46:19.560Z,96683.72
2023-03-25T19:48:47.884Z,96671.97
2023-03-25T19:51:16.751Z,96685.03
2023-03-25T19:53:43.954Z,96682.00
2023-03-25T19:56:16.258Z,96684.81
2023-03-25T19:58:47.011Z,96688.72
2023-03-25T20:01:18.572Z,96675.94
2023-03-25T20:03:45.893Z,96683.09
2023-03-25T20:06:13.111Z,96685.13
2023-03-25T20:08:41.643Z,96681.38
2023-03-25T20:11:12.420Z,96688.25
2023-03-25T20:13:42.790Z,96694.94
2023-03-25T20:16:09.878Z,96694.94
2023-03-25T20:18:37.237Z,96689.31
2023-03-25T20:21:09.529Z,96690.84
2023-03-25T20:23:37.475Z,96680.91
2023-03-25T20:26:07.602Z,96680.38
2023-03-25T20:28:36.336Z,96693.44
2023-03-25T20:31:15.264Z,96706.50
2023-03-25T20:33:44.002Z,96698.91
2023-03-25T20:36:13.115Z,96696.66
2023-03-25T20:38:50.463Z,96704.09
2023-03-25T20:41:24.279Z,96700.31
2023-03-25T20:43:53.545Z,96694.78
2023-03-25T20:46:25.116Z,96690.25
2023-03-25T20:48:52.913Z,96698.75
2023-03-25T20:51:23.484Z,96691.84
2023-03-25T20:53:57.385Z,96686.88
2023-03-25T20:56:27.724Z,96694.63
2023-03-25T20:58:55.078Z,96703.13
2023-03-25T21:01:23.048Z,96694.78
2023-03-25T21:03:52.156Z,96698.91
2023-03-25T21:06:24.362Z,96696.94
2023-03-25T21:09:01.019Z,96701.63
2023-03-25T21:11:35.878Z,96711.66
2023-03-25T21:14:03.587Z,96716.25
2023-03-25T21:16:33.138Z,96707.38
2023-03-25T21:19:03.075Z,96712.34
2023-03-25T21:21:32.229Z,96711.34
2023-03-25T21:23:59.374Z,96707.09
2023-03-25T21:26:30.818Z,96707.09
2023-03-25T21:28:58.444Z,96709.47
2023-03-25T21:31:26.319Z,96720.44
2023-03-25T21:33:58.812Z,96711.31
2023-03-25T21:36:29.142Z,96708.31
2023-03-25T21:39:04.624Z,96714.44
2023-03-25T21:41:32.950Z,96703.53
2023-03-25T21:44:02.976Z,96705.56
2023-03-25T21:46:33.752Z,96717.22
2023-03-25T21:49:02.819Z,96718.44
2023-03-25T21:51:37.979Z,96710.28
2023-03-25T21:54:06.664Z,96716.66
2023-03-25T21:56:37.478Z,96713.59
2023-03-25T21:59:07.167Z,96718.44
2023-03-25T22:01:36.130Z,96726.66
2023-03-25T22:04:04.816Z,96719.53
2023-03-25T22:06:35.217Z,96729.19
2023-03-25T22:09:07.195Z,96720.03
2023-03-25T22:11:37.704Z,96729.44
2023-03-25T22:14:07.744Z,96737.84
2023-03-25T22:16:34.841Z,96741.94
2023-03-25T22:19:02.511Z,96739.66
2023-03-25T22:21:34.549Z,96741.94
2023-03-25T22:24:03.479Z,96750.34
2023-03-25T22:26:32.561Z,96751.63
2023-03-25T22:29:02.814Z,96746.25
2023-03-25T22:31:32.456Z,96758.50
2023-03-25T22:34:12.432Z,96746.03
2023-03-25T22:36:43.724Z,96758.22
2023-03-25T22:39:12.591Z,96761.78
2023-03-25T22:41:39.794Z,96756.16
2023-03-25T22:44:07.628Z,96766.09
2023-03-25T22:46:35.728Z,96765.88
2023-03-25T22:49:04.613Z,96762.63
2023-03-25T22:51:32.870Z,96762.38
2023-03-25T22:54:01.054Z,96770.53
2023-03-25T22:56:34.041Z,96776.63
2023-03-25T22:59:02.588Z,96783.50
2023-03-25T23:01:31.664Z,96781.22
2023-03-25T23:04:00.388Z,96774.16
2023-03-25T23:06:27.592Z,96776.50
2023-03-25T23:08:58.790Z,96783.91
2023-03-25T23:11:29.118Z,96785.16
2023-03-25T23:14:06.512Z,96776.25
2023-03-25T23:16:36.241Z,96771.72
2023-03-25T23:19:07.172Z,96768.66
2023-03-25T23:21:34.733Z,96771.75
2023-03-25T23:24:04.176Z,96772.28
2023-03-25T23:26:39.612Z,96776.13
2023-03-25T23:29:13.425Z,96770.28
2023-03-25T23:31:44.437Z,96771.13
2023-03-25T23:34:14.476Z,96781.31
2023-03-25T23:36:42.145Z,96776.50
2023-03-25T23:39:14.229Z,96786.16
2023-03-25T23:41:42.048Z,96771.00
2023-03-25T23:44:09.172Z,96766.91
2023-03-25T23:46:36.447Z,96784.75
2023-03-25T23:49:04.086Z,96778.69
2023-03-25T23:51:36.860Z,96770.81
2023-03-25T23:54:06.092Z,96782.78
2023-03-25T23:56:33.234Z,96774.38
2023-03-25T23:59:04.538Z,96772.03
